Startpagina
METAR-TAF:

METAR-TAF

Vliegvelden :

Air Force Base Waterkloof

Waterkloof, Zuid-Afrika

breedte: 25-50S, lengte: 028-13E, hoogte: 1498 m

Actueel weer

Dit bericht is 2 uur en het 24 minuten geleden gemaakt, om 09:00 UTC
Wind 3 kt uit het westnoordwesten
Temperatuur
Druk 1027 hPa

METAR: FAWK 270900Z AUTO 30003KT //// // ////// ///// Q1027

Tijdstip: 13:24 (11:24 UTC)

Verwachting

Dit bericht is 2 uur en het 24 minuten geleden gemaakt, om 09:00 UTC
Verwachting geldig van 27 om 10 UTC tot 27 om 18 UTC
Wind 3 kt uit variabele richting
Zicht 10 km of meer
geen wolken onder 1500 m en geen cumulonimbus

TAF: FAWK 270900Z 2710/2718 VRB03KT CAVOK TX21/2713Z TN15/2718Z

Waarnemingen en weersverwachtingen van meer dan 4000 vliegvelden (METAR en TAF).

De beschikbare stations zijn de gele en rode punten op de kaart.

Ga met uw muis naar het station om de naam te zien.

Klik dan om waarnemingen en weersverwachtingen te zien.

kaart wijzigen: klik op de groene knoppen met een zwart kruis om in te zoomen, op de groene knop met een streepje om uit te zoomen of op de groene pijlen voor aangrenzende kaarten.


METAR-TAF: